Time;durP1;ratioP1;P1;durP2;ratioP2;P2;SDS_P1;SDS_P2;PMS_P1;PMS_P2;Temp;Humidity;BMP_temperature;BMP_pressure;BME280_temperature;BME280_humidity;BME280_pressure;Samples;Min_cycle;Max_cycle;Signal;HPM_P1;HPM_P2
2021/06/21 00:00:40;;;;;;;16.00;6.28;;;;;;;18.54;69.23;94668.97;5016702;28;20033;-78
2021/06/21 00:03:06;;;;;;;17.67;6.13;;;;;;;18.52;69.65;94670.34;5034038;28;20033;-78
2021/06/21 00:05:31;;;;;;;9.85;5.20;;;;;;;18.53;70.05;94677.16;5016304;28;20029;-78
2021/06/21 00:07:58;;;;;;;10.10;5.60;;;;;;;18.49;70.10;94661.16;5017147;28;20041;-78
2021/06/21 00:10:23;;;;;;;12.02;5.45;;;;;;;18.46;69.62;94659.09;5000058;28;20026;-78
2021/06/21 00:12:49;;;;;;;13.68;6.10;;;;;;;18.43;70.19;94664.16;5016003;28;20095;-78
2021/06/21 00:15:17;;;;;;;10.52;6.93;;;;;;;18.39;69.94;94665.81;5000016;28;20083;-77
2021/06/21 00:17:50;;;;;;;8.32;6.22;;;;;;;18.32;69.79;94654.81;5015430;28;20118;-77
2021/06/21 00:20:16;;;;;;;11.05;5.85;;;;;;;18.32;69.85;94654.81;5004763;28;20132;-78
2021/06/21 00:23:07;;;;;;;13.07;6.10;;;;;;;18.30;69.68;94655.91;5012381;28;20406;-77
2021/06/21 00:25:36;;;;;;;15.45;6.78;;;;;;;18.27;69.45;94647.78;5019125;22;20033;-78
2021/06/21 00:28:01;;;;;;;8.52;5.10;;;;;;;18.22;69.69;94640.75;5032542;28;20061;-78
2021/06/21 00:30:27;;;;;;;12.88;6.18;;;;;;;18.22;69.60;94637.31;5032046;28;20056;-78
2021/06/21 00:32:52;;;;;;;12.40;5.80;;;;;;;18.19;69.89;94635.25;5032410;28;20030;-78
2021/06/21 00:35:20;;;;;;;14.18;4.95;;;;;;;18.17;69.61;94637.38;5033355;28;20487;-78
2021/06/21 00:37:46;;;;;;;6.03;5.10;;;;;;;18.16;70.23;94641.09;5015580;28;20493;-78
2021/06/21 00:40:12;;;;;;;12.38;4.88;;;;;;;18.12;69.80;94632.19;5016041;28;20033;-78
2021/06/21 00:42:43;;;;;;;7.65;4.85;;;;;;;18.08;69.69;94634.63;5016774;28;20141;-78
2021/06/21 00:45:09;;;;;;;6.22;5.60;;;;;;;18.05;70.98;94623.84;5033601;28;20409;-78
2021/06/21 00:47:38;;;;;;;6.93;4.88;;;;;;;18.00;71.09;94636.00;4999260;28;20107;-78
2021/06/21 00:50:04;;;;;;;6.32;4.90;;;;;;;17.97;71.21;94628.69;5033482;28;20025;-78
2021/06/21 00:52:29;;;;;;;9.70;5.07;;;;;;;17.94;71.16;94628.47;5033384;28;20038;-78
2021/06/21 00:55:01;;;;;;;15.52;5.65;;;;;;;17.92;71.31;94626.13;4999134;28;20029;-78
2021/06/21 00:57:30;;;;;;;5.53;4.93;;;;;;;17.91;70.92;94629.81;5012024;28;20033;-78
2021/06/21 00:59:57;;;;;;;9.73;4.63;;;;;;;17.91;70.75;94635.09;5011030;28;20026;-78
2021/06/21 01:02:23;;;;;;;4.90;4.32;;;;;;;17.93;70.46;94646.09;4994743;28;20429;-78
2021/06/21 01:04:48;;;;;;;5.85;5.13;;;;;;;17.91;70.40;94644.81;4993861;28;20037;-78
2021/06/21 01:07:14;;;;;;;10.32;5.38;;;;;;;17.92;71.31;94649.03;5028157;28;20037;-78
2021/06/21 01:09:42;;;;;;;6.82;5.03;;;;;;;17.88;71.76;94640.88;5028968;28;20167;-78
2021/06/21 01:12:15;;;;;;;12.25;7.22;;;;;;;17.83;72.02;94638.31;5001620;23;20446;-78
2021/06/21 01:14:44;;;;;;;12.38;6.63;;;;;;;17.78;72.35;94635.75;4992320;28;20038;-78
2021/06/21 01:17:13;;;;;;;10.38;6.65;;;;;;;17.78;72.38;94630.50;4992110;28;20038;-77
2021/06/21 01:20:03;;;;;;;11.73;6.63;;;;;;;17.80;72.39;94633.63;4990529;28;20083;-77
2021/06/21 01:22:59;;;;;;;12.50;5.90;;;;;;;17.80;72.45;94628.38;5007951;28;20038;-77
2021/06/21 01:25:39;;;;;;;19.27;4.88;;;;;;;17.78;71.35;94632.34;5015619;28;20517;-78
2021/06/21 01:28:08;;;;;;;15.13;5.13;;;;;;;17.73;70.79;94641.06;5012540;28;20116;-78
2021/06/21 01:30:54;;;;;;;11.40;4.85;;;;;;;17.73;70.31;94640.28;4996854;28;20112;-79
2021/06/21 01:33:20;;;;;;;11.88;5.30;;;;;;;17.72;70.18;94630.81;4980634;28;20037;-79
2021/06/21 01:35:53;;;;;;;7.60;5.05;;;;;;;17.70;70.01;94633.72;4964632;28;20057;-79
2021/06/21 01:38:39;;;;;;;6.35;5.13;;;;;;;17.69;69.63;94642.69;4980846;28;20061;-78
2021/06/21 01:41:06;;;;;;;15.90;7.20;;;;;;;17.64;69.29;94638.25;5014236;28;20029;-78
2021/06/21 01:43:39;;;;;;;16.67;7.43;;;;;;;17.62;69.53;94642.22;4979703;28;20140;-78
2021/06/21 01:46:05;;;;;;;20.60;8.32;;;;;;;17.60;69.27;94654.88;4997727;28;20060;-79
2021/06/21 01:48:38;;;;;;;16.77;6.53;;;;;;;17.60;69.37;94654.88;4997522;28;20884;-79
2021/06/21 01:51:04;;;;;;;18.52;7.03;;;;;;;17.55;69.56;94654.91;4981361;28;20058;-79
2021/06/21 01:53:31;;;;;;;8.60;5.82;;;;;;;17.53;69.95;94649.91;4996627;28;20072;-78
2021/06/21 01:56:21;;;;;;;11.55;5.45;;;;;;;17.52;69.90;94653.63;5015154;28;20518;-79
2021/06/21 01:58:48;;;;;;;10.27;5.55;;;;;;;17.50;69.80;94644.44;5011917;28;20065;-79
2021/06/21 02:01:17;;;;;;;15.73;5.53;;;;;;;17.49;69.75;94645.50;5013573;28;20032;-78
2021/06/21 02:03:53;;;;;;;17.08;5.25;;;;;;;17.44;69.64;94642.94;4980499;28;20068;-78
2021/06/21 02:06:18;;;;;;;6.43;5.18;;;;;;;17.43;69.90;94647.41;4981439;28;20030;-79
2021/06/21 02:08:45;;;;;;;19.45;5.78;;;;;;;17.45;69.87;94649.75;4982204;28;20061;-79
2021/06/21 02:11:11;;;;;;;8.77;5.53;;;;;;;17.42;70.00;94652.94;4982377;28;20030;-79
2021/06/21 02:13:36;;;;;;;8.43;5.30;;;;;;;17.44;70.01;94650.81;5013785;28;20071;-78
2021/06/21 02:16:02;;;;;;;14.70;5.82;;;;;;;17.40;69.98;94647.94;5037919;28;20068;-79
2021/06/21 02:18:30;;;;;;;27.17;6.38;;;;;;;17.37;70.08;94656.41;5010627;28;20038;-79
2021/06/21 02:20:55;;;;;;;22.80;6.30;;;;;;;17.38;70.28;94657.97;5001273;28;20022;-79
2021/06/21 02:23:27;;;;;;;23.45;6.68;;;;;;;17.36;69.78;94655.59;5000937;28;20036;-79
2021/06/21 02:25:53;;;;;;;21.48;6.45;;;;;;;17.35;70.28;94659.31;4985604;28;20026;-79
2021/06/21 02:28:18;;;;;;;16.58;6.22;;;;;;;17.32;70.35;94654.59;4985316;28;20414;-79
2021/06/21 02:30:44;;;;;;;26.27;6.07;;;;;;;17.33;70.40;94650.13;5001904;28;20026;-79
2021/06/21 02:33:11;;;;;;;27.25;6.30;;;;;;;17.32;70.66;94654.59;4985244;28;20026;-79
2021/06/21 02:35:36;;;;;;;13.55;5.50;;;;;;;17.32;70.57;94651.19;4984606;28;20472;-79
2021/06/21 02:38:02;;;;;;;13.73;6.18;;;;;;;17.28;71.00;94652.81;5017237;28;20034;-79
2021/06/21 02:40:27;;;;;;;15.85;6.03;;;;;;;17.26;71.05;94660.19;5017759;28;20045;-79
2021/06/21 02:45:25;;;;;;;30.95;7.38;;;;;;;17.21;70.28;94653.13;5121201;22;20102;-78
2021/06/21 02:47:50;;;;;;;22.35;8.07;;;;;;;17.21;70.68;94658.38;5057759;28;20028;-78
2021/06/21 02:50:16;;;;;;;19.55;8.02;;;;;;;17.23;70.21;94658.88;5039417;28;20482;-78
2021/06/21 02:53:14;;;;;;;28.65;8.70;;;;;;;17.18;70.22;94658.94;5021753;28;20037;-78
2021/06/21 02:55:49;;;;;;;24.30;11.68;;;;;;;17.20;70.49;94651.56;5037992;28;20037;-78
2021/06/21 02:58:19;;;;;;;28.67;14.77;;;;;;;17.21;70.37;94647.88;5055245;28;20406;-78
2021/06/21 03:00:45;;;;;;;41.20;17.88;;;;;;;17.18;70.06;94637.91;5021613;28;20035;-78
2021/06/21 03:03:10;;;;;;;33.92;16.50;;;;;;;17.18;70.18;94639.75;5003701;28;20104;-77
2021/06/21 03:05:39;;;;;;;22.15;13.15;;;;;;;17.18;70.12;94637.13;5037670;28;20037;-78
2021/06/21 03:08:04;;;;;;;30.65;14.13;;;;;;;17.17;70.12;94638.97;5036875;28;20052;-78
2021/06/21 03:10:30;;;;;;;23.70;15.82;;;;;;;17.20;69.73;94635.78;5038451;28;20101;-78
2021/06/21 03:12:56;;;;;;;36.97;15.32;;;;;;;17.18;69.80;94632.66;5019930;28;20036;-78
2021/06/21 03:15:34;;;;;;;37.15;19.20;;;;;;;17.14;69.98;94634.28;5020065;28;20037;-77
2021/06/21 03:18:00;;;;;;;39.38;21.23;;;;;;;17.17;69.48;94640.81;5037299;28;20095;-78
2021/06/21 03:20:25;;;;;;;37.05;14.55;;;;;;;17.17;69.59;94638.97;5038830;28;20053;-78
2021/06/21 03:22:57;;;;;;;29.05;13.57;;;;;;;17.19;69.78;94631.59;5006207;28;20025;-78
2021/06/21 03:25:27;;;;;;;22.88;12.68;;;;;;;17.18;69.68;94632.66;5022001;28;20033;-78
2021/06/21 03:27:52;;;;;;;27.25;11.88;;;;;;;17.17;69.94;94640.81;5004752;28;20120;-78
2021/06/21 03:30:18;;;;;;;16.23;9.00;;;;;;;17.15;70.10;94648.97;5056474;28;20527;-78
2021/06/21 03:32:45;;;;;;;21.40;6.70;;;;;;;17.15;70.00;94643.72;5003557;28;20040;-80
2021/06/21 03:35:12;;;;;;;25.40;7.00;;;;;;;17.20;70.16;94640.25;5034284;28;20276;-80
2021/06/21 03:37:37;;;;;;;10.57;6.85;;;;;;;17.26;70.82;94645.22;5005848;28;20025;-79
2021/06/21 03:40:05;;;;;;;9.98;6.38;;;;;;;17.31;71.61;94639.91;5057280;28;20029;-79
2021/06/21 03:42:30;;;;;;;19.02;6.18;;;;;;;17.36;70.81;94642.47;5036817;28;20060;-78
2021/06/21 03:45:02;;;;;;;6.75;6.07;;;;;;;17.45;70.31;94645.28;5051901;28;20067;-78
2021/06/21 03:47:28;;;;;;;;;;;;;;;17.39;70.44;94649.78;5052050;28;20029;-78
2021/06/21 03:49:53;;;;;;;8.38;5.80;;;;;;;17.40;70.39;94646.09;5051512;28;20312;-79
2021/06/21 03:52:20;;;;;;;17.40;7.10;;;;;;;17.47;70.36;94639.75;5052418;28;20041;-78
2021/06/21 03:54:46;;;;;;;17.33;6.93;;;;;;;17.61;69.72;94636.19;5052152;28;20033;-78
2021/06/21 03:57:11;;;;;;;17.52;6.72;;;;;;;17.77;70.04;94643.94;5033978;28;20040;-78
2021/06/21 03:59:37;;;;;;;14.00;6.13;;;;;;;17.92;69.72;94656.91;5050532;28;20024;-78
2021/06/21 04:02:03;;;;;;;16.20;6.72;;;;;;;18.15;68.62;94663.19;5050647;28;20044;-78
2021/06/21 04:04:29;;;;;;;15.65;5.95;;;;;;;19.13;65.99;94667.63;5051393;28;20595;-78
2021/06/21 04:06:54;;;;;;;11.82;5.13;;;;;;;21.44;58.21;94666.09;5001076;28;20049;-78
2021/06/21 04:09:20;;;;;;;12.82;4.97;;;;;;;23.62;51.75;94666.13;5051634;28;20036;-78
2021/06/21 04:11:46;;;;;;;11.15;5.60;;;;;;;25.56;46.37;94660.47;5052573;28;20567;-78
2021/06/21 04:14:12;;;;;;;12.52;4.90;;;;;;;27.33;42.25;94658.94;5019374;28;20036;-78
2021/06/21 04:16:38;;;;;;;11.70;4.70;;;;;;;29.00;38.89;94651.44;5021213;28;20028;-79
2021/06/21 04:19:03;;;;;;;23.40;5.10;;;;;;;30.65;35.31;94645.03;5019725;28;20250;-80
2021/06/21 04:21:29;;;;;;;16.15;5.03;;;;;;;31.90;33.58;94647.22;5070632;23;20099;-79
2021/06/21 04:23:55;;;;;;;18.85;4.28;;;;;;;33.27;30.97;94647.66;5025265;28;20026;-79
2021/06/21 04:26:21;;;;;;;13.32;4.40;;;;;;;34.44;29.02;94645.13;5045821;28;20409;-79
2021/06/21 04:28:46;;;;;;;10.88;4.75;;;;;;;35.47;26.95;94639.41;5042988;28;20033;-80
2021/06/21 04:31:12;;;;;;;5.13;3.67;;;;;;;36.66;24.82;94651.63;5023049;28;20032;-76
2021/06/21 04:33:44;;;;;;;6.68;3.50;;;;;;;37.75;23.34;94658.09;5040347;28;20025;-79
2021/06/21 04:36:09;;;;;;;8.57;3.30;;;;;;;38.21;22.59;94645.75;5025941;28;20029;-79
2021/06/21 04:38:35;;;;;;;10.13;3.42;;;;;;;38.77;22.16;94648.69;5027482;28;20036;-79
2021/06/21 04:41:00;;;;;;;22.92;5.30;;;;;;;39.24;21.55;94655.53;5044988;28;20029;-80
2021/06/21 04:43:26;;;;;;;8.73;4.03;;;;;;;39.74;20.17;94656.44;5026557;28;20033;-81
2021/06/21 04:45:51;;;;;;;13.27;3.45;;;;;;;40.16;20.24;94662.84;5043536;28;20029;-81
2021/06/21 04:48:23;;;;;;;6.32;3.40;;;;;;;40.83;19.54;94667.81;5008676;28;20041;-81
2021/06/21 04:50:49;;;;;;;14.45;3.03;;;;;;;40.25;19.83;94665.75;5044064;28;20037;-82
2021/06/21 04:53:29;;;;;;;9.55;3.38;;;;;;;40.71;19.57;94666.56;5044261;28;20052;-82
2021/06/21 04:55:58;;;;;;;12.57;3.75;;;;;;;41.72;18.34;94673.53;5090218;22;20046;-83
2021/06/21 04:58:23;;;;;;;11.98;3.20;;;;;;;42.05;18.38;94677.56;5004184;28;20090;-78
2021/06/21 05:00:48;;;;;;;7.47;2.97;;;;;;;42.44;17.81;94670.84;5033266;28;20029;-78
2021/06/21 05:03:14;;;;;;;10.48;3.75;;;;;;;42.41;17.71;94679.16;5034667;28;20033;-77
2021/06/21 05:05:39;;;;;;;8.60;3.25;;;;;;;42.75;17.43;94676.44;5031963;28;20036;-78
2021/06/21 05:08:05;;;;;;;9.43;3.33;;;;;;;42.43;17.66;94687.69;5029641;28;20042;-77
2021/06/21 05:10:30;;;;;;;7.50;3.97;;;;;;;43.40;16.98;94675.72;5032006;28;20036;-78
2021/06/21 05:12:56;;;;;;;10.80;2.95;;;;;;;44.33;15.90;94677.66;5032926;28;20558;-82
2021/06/21 05:15:21;;;;;;;11.63;3.60;;;;;;;45.16;15.55;94676.50;5033088;28;20021;-80
2021/06/21 05:17:47;;;;;;;15.02;3.78;;;;;;;45.53;14.80;94676.44;5014500;28;20036;-80
2021/06/21 05:20:13;;;;;;;8.30;3.65;;;;;;;46.42;14.08;94685.28;5032250;28;20030;-80
2021/06/21 05:22:38;;;;;;;4.70;3.08;;;;;;;47.12;13.84;94680.16;4998276;28;20036;-80
2021/06/21 05:25:04;;;;;;;17.52;3.22;;;;;;;47.53;13.34;94684.69;5031943;28;20507;-80
2021/06/21 05:27:30;;;;;;;4.90;2.80;;;;;;;48.16;13.01;94687.13;5032459;28;20059;-80
2021/06/21 05:29:56;;;;;;;12.57;3.50;;;;;;;48.78;12.54;94699.03;5014945;28;20038;-80
2021/06/21 05:32:22;;;;;;;6.60;3.20;;;;;;;49.29;12.35;94688.06;5030560;28;20033;-80
2021/06/21 05:34:47;;;;;;;13.27;3.63;;;;;;;49.60;12.10;94700.38;5031715;28;20110;-80
2021/06/21 05:37:13;;;;;;;7.85;3.30;;;;;;;50.09;11.37;94698.53;5031098;28;20022;-80
2021/06/21 05:39:38;;;;;;;6.30;3.53;;;;;;;50.41;10.90;94694.47;5032560;28;20034;-80
2021/06/21 05:42:04;;;;;;;17.35;3.83;;;;;;;50.42;10.88;94695.97;5014561;28;20036;-80
2021/06/21 05:44:30;;;;;;;16.75;3.40;;;;;;;50.78;10.86;94698.44;5032530;28;20052;-80
2021/06/21 05:46:55;;;;;;;14.90;2.90;;;;;;;50.60;11.17;94682.97;5031352;28;20585;-80
2021/06/21 05:49:20;;;;;;;11.60;2.95;;;;;;;50.50;10.78;94692.75;5031995;28;20056;-80
2021/06/21 05:51:46;;;;;;;16.50;3.50;;;;;;;50.47;11.25;94688.22;5032236;28;20080;-81
2021/06/21 05:54:12;;;;;;;6.93;3.35;;;;;;;50.43;10.72;94686.44;5013967;28;20060;-81
2021/06/21 05:56:37;;;;;;;10.48;4.43;;;;;;;50.84;10.89;94686.13;5016582;28;20033;-80
2021/06/21 05:59:03;;;;;;;10.25;3.20;;;;;;;51.04;10.72;94683.19;5043268;28;20064;-79
2021/06/21 06:01:28;;;;;;;12.45;3.20;;;;;;;51.09;10.55;94686.44;5002895;28;20041;-80
2021/06/21 06:03:54;;;;;;;24.92;3.28;;;;;;;51.75;10.15;94682.25;5012665;28;20088;-81
2021/06/21 06:06:19;;;;;;;11.90;3.67;;;;;;;52.39;9.99;94672.84;5370600;22;20087;-80
2021/06/21 06:08:45;;;;;;;10.15;3.75;;;;;;;51.44;10.52;94681.25;5045679;28;20045;-80
2021/06/21 06:11:10;;;;;;;16.48;3.60;;;;;;;52.14;9.98;94669.13;5040310;28;20448;-79
2021/06/21 06:13:36;;;;;;;14.10;4.20;;;;;;;52.00;10.16;94675.69;5003926;28;20471;-80
2021/06/21 06:16:02;;;;;;;16.05;4.15;;;;;;;52.39;9.88;94666.53;5034230;28;20072;-80
2021/06/21 06:18:28;;;;;;;19.00;4.30;;;;;;;52.63;10.01;94672.25;5017389;28;20025;-80
2021/06/21 06:20:53;;;;;;;12.13;3.70;;;;;;;52.44;9.85;94671.34;5034824;28;20079;-80
2021/06/21 06:23:19;;;;;;;11.27;3.53;;;;;;;52.03;10.07;94674.66;5033573;28;20047;-80
2021/06/21 06:25:44;;;;;;;9.50;3.28;;;;;;;51.88;10.33;94672.16;5032313;28;20048;-80
2021/06/21 06:28:10;;;;;;;13.32;2.92;;;;;;;51.50;10.53;94673.69;5034761;28;20425;-80
2021/06/21 06:30:36;;;;;;;11.13;3.47;;;;;;;51.86;10.53;94668.38;5033538;28;20048;-80
2021/06/21 06:33:08;;;;;;;8.43;3.53;;;;;;;50.72;10.91;94668.72;5032366;28;20061;-80
2021/06/21 06:35:33;;;;;;;15.07;2.97;;;;;;;50.52;10.74;94660.56;5016659;28;20084;-80
2021/06/21 06:37:59;;;;;;;12.75;3.30;;;;;;;50.10;11.25;94659.31;5016054;28;20045;-80
2021/06/21 06:42:54;;;;;;;11.15;3.38;;;;;;;49.16;12.05;94651.78;5085716;22;20057;-80
2021/06/21 06:45:19;;;;;;;7.90;3.00;;;;;;;49.72;11.54;94652.28;5033409;28;20033;-81
2021/06/21 06:47:45;;;;;;;10.57;3.00;;;;;;;49.34;11.78;94653.47;5016206;28;20031;-80
2021/06/21 06:50:11;;;;;;;8.80;3.33;;;;;;;48.39;13.25;94657.91;5000019;28;20038;-80
2021/06/21 06:52:37;;;;;;;9.55;2.97;;;;;;;49.12;12.29;94651.22;5016559;28;20025;-80
2021/06/21 06:57:59;;;;;;;11.18;3.20;;;;;;;48.34;12.88;94651.06;5017685;28;20474;-80
2021/06/21 07:00:25;;;;;;;8.13;3.33;;;;;;;47.87;13.32;94643.91;5033367;28;20032;-80
2021/06/21 07:02:50;;;;;;;7.57;3.00;;;;;;;47.03;13.80;94636.97;5013776;28;20029;-82
2021/06/21 07:05:19;;;;;;;17.70;3.90;;;;;;;46.33;14.76;94647.56;5032047;28;20398;-80
2021/06/21 07:07:44;;;;;;;20.13;5.32;;;;;;;45.54;15.22;94645.00;5033094;28;20029;-80
2021/06/21 07:10:10;;;;;;;11.68;3.88;;;;;;;44.51;16.08;94639.31;5015890;28;20044;-80
2021/06/21 07:12:35;;;;;;;6.28;3.88;;;;;;;43.69;17.28;94642.59;4999495;28;20485;-80
2021/06/21 07:15:01;;;;;;;8.95;3.85;;;;;;;42.68;17.80;94638.44;4999126;28;20036;-80
2021/06/21 07:17:27;;;;;;;10.50;3.83;;;;;;;42.08;18.25;94643.16;5015736;28;20033;-79
2021/06/21 07:19:52;;;;;;;15.93;4.10;;;;;;;41.44;19.05;94643.13;5033706;28;20037;-81
2021/06/21 07:22:18;;;;;;;16.00;3.50;;;;;;;41.21;19.75;94646.13;4999716;28;20038;-82
2021/06/21 07:24:43;;;;;;;12.32;3.65;;;;;;;40.53;20.36;94639.00;4983513;28;20047;-81
2021/06/21 07:27:09;;;;;;;9.57;4.07;;;;;;;40.22;21.45;94633.94;5016206;28;20040;-81
2021/06/21 07:29:34;;;;;;;11.57;4.40;;;;;;;39.70;21.75;94644.84;4998175;28;20094;-82
2021/06/21 07:32:00;;;;;;;10.68;4.07;;;;;;;38.68;22.86;94641.84;5015125;28;20033;-81
2021/06/21 07:34:25;;;;;;;9.68;4.28;;;;;;;38.29;23.33;94641.75;4999385;28;20036;-81
2021/06/21 07:36:51;;;;;;;24.95;4.57;;;;;;;37.97;24.05;94637.59;4982485;28;20040;-81
2021/06/21 07:39:57;;;;;;;11.48;4.40;;;;;;;37.68;24.12;94642.66;5033104;28;20029;-81
2021/06/21 07:42:22;;;;;;;13.57;4.82;;;;;;;37.02;24.79;94653.97;4977070;28;20133;-80
2021/06/21 07:44:48;;;;;;;18.33;4.80;;;;;;;36.50;25.98;94650.63;5032695;28;20026;-81
2021/06/21 07:56:36;;;;;;;11.18;3.67;;;;;;;34.76;29.37;94636.19;4956422;28;20576;-78
2021/06/21 07:59:04;;;;;;;12.77;4.15;;;;;;;34.58;29.08;94639.69;5012863;28;20054;-81
2021/06/21 08:01:38;;;;;;;15.82;4.18;;;;;;;34.32;29.69;94632.00;4987852;28;20021;-80
2021/06/21 08:04:04;;;;;;;12.77;4.30;;;;;;;34.23;30.28;94628.94;5003109;28;20033;-78
2021/06/21 08:06:29;;;;;;;13.02;4.28;;;;;;;34.07;30.22;94625.88;5025936;23;20073;-79
2021/06/21 08:08:55;;;;;;;10.05;4.03;;;;;;;33.64;31.00;94631.22;5032968;28;20120;-79
2021/06/21 08:11:26;;;;;;;15.40;4.03;;;;;;;33.53;31.71;94625.06;5032869;28;20095;-79
2021/06/21 08:13:52;;;;;;;11.15;3.70;;;;;;;33.50;31.69;94623.09;5031540;28;20041;-78
2021/06/21 08:16:17;;;;;;;6.30;3.45;;;;;;;33.19;31.61;94628.00;5032810;28;20549;-78
2021/06/21 08:18:43;;;;;;;6.40;3.65;;;;;;;32.99;31.37;94626.78;4998590;28;20030;-78
2021/06/21 08:21:08;;;;;;;7.65;3.00;;;;;;;32.87;32.30;94638.69;5014530;28;20033;-78
2021/06/21 08:23:43;;;;;;;10.80;3.35;;;;;;;32.92;32.29;94640.22;5032204;28;20045;-79
2021/06/21 08:26:09;;;;;;;3.88;2.80;;;;;;;32.43;31.55;94628.03;5033137;28;20046;-79
2021/06/21 08:28:35;;;;;;;6.28;3.70;;;;;;;32.22;32.69;94628.66;5013461;28;20481;-79
2021/06/21 08:31:00;;;;;;;9.85;4.22;;;;;;;32.12;33.39;94627.41;5011946;28;20121;-78
2021/06/21 08:33:26;;;;;;;6.55;3.33;;;;;;;32.08;33.83;94623.16;5028643;28;20690;-78
2021/06/21 08:35:51;;;;;;;13.10;3.33;;;;;;;31.94;32.58;94621.13;5028704;28;20571;-80
2021/06/21 08:38:19;;;;;;;7.25;2.10;;;;;;;31.69;32.02;94625.50;4980290;28;20092;-80
2021/06/21 08:40:45;;;;;;;8.63;2.13;;;;;;;31.42;32.96;94622.19;4994916;28;20030;-80
2021/06/21 08:43:14;;;;;;;5.55;2.20;;;;;;;31.26;33.25;94614.34;5012875;28;20043;-80
2021/06/21 08:45:39;;;;;;;6.63;2.72;;;;;;;31.06;32.79;94616.38;4999079;28;20048;-81
2021/06/21 08:48:09;;;;;;;2.85;2.50;;;;;;;30.73;33.70;94609.88;5014619;28;20029;-80
2021/06/21 08:50:36;;;;;;;6.85;2.95;;;;;;;30.80;34.26;94614.56;5014488;28;20051;-80
2021/06/21 08:53:02;;;;;;;4.35;2.88;;;;;;;30.92;34.85;94621.63;4997475;28;20493;-80
2021/06/21 08:55:27;;;;;;;4.40;2.35;;;;;;;31.01;33.68;94619.41;4998294;28;20038;-80
2021/06/21 08:57:53;;;;;;;6.05;2.20;;;;;;;30.88;34.30;94620.78;5015086;28;20489;-81
2021/06/21 09:00:20;;;;;;;4.88;2.25;;;;;;;30.77;33.72;94612.63;4982532;28;20057;-80
2021/06/21 09:02:49;;;;;;;2.88;2.22;;;;;;;30.70;34.04;94617.88;4996715;28;20044;-81
2021/06/21 09:05:14;;;;;;;10.70;2.45;;;;;;;30.57;33.65;94621.91;4998106;28;20041;-80
2021/06/21 09:07:40;;;;;;;2.92;2.28;;;;;;;30.44;34.93;94619.44;4997873;28;20022;-80
2021/06/21 09:10:23;;;;;;;8.18;2.47;;;;;;;30.55;34.76;94618.81;4998117;28;20033;-80
2021/06/21 09:13:04;;;;;;;4.20;2.47;;;;;;;30.57;33.93;94621.91;5000703;28;20038;-80
2021/06/21 09:15:35;;;;;;;3.77;2.20;;;;;;;30.55;33.08;94629.53;5014924;28;20033;-80
2021/06/21 09:18:01;;;;;;;4.30;1.98;;;;;;;30.50;33.35;94616.44;4997759;28;20284;-80
2021/06/21 09:20:47;;;;;;;3.22;2.92;;;;;;;30.55;33.41;94616.13;4996918;28;20037;-80
2021/06/21 09:23:13;;;;;;;3.35;2.30;;;;;;;30.55;33.48;94618.81;5031158;28;20413;-80
2021/06/21 09:25:41;;;;;;;4.68;2.15;;;;;;;30.34;33.21;94616.63;5031342;28;20041;-80
2021/06/21 09:28:07;;;;;;;7.50;2.70;;;;;;;30.11;33.75;94616.69;5032094;28;20121;-80
2021/06/21 09:30:33;;;;;;;6.20;2.40;;;;;;;30.12;33.61;94618.22;4998095;28;20033;-80
2021/06/21 09:32:59;;;;;;;8.85;2.10;;;;;;;30.11;32.87;94611.31;4991259;28;20041;-81
2021/06/21 09:37:51;;;;;;;6.88;2.28;;;;;;;30.15;34.65;94617.50;5978050;22;20065;-80
2021/06/21 09:40:45;;;;;;;5.43;2.47;;;;;;;30.21;33.71;94615.28;5035378;28;20052;-81
2021/06/21 09:43:33;;;;;;;3.58;2.58;;;;;;;30.09;35.59;94610.88;5031849;28;20062;-78
2021/06/21 09:46:07;;;;;;;5.00;2.10;;;;;;;30.00;35.02;94616.47;5018009;28;20022;-81
2021/06/21 09:48:38;;;;;;;4.65;1.90;;;;;;;29.98;34.50;94620.66;5012610;28;20146;-81
2021/06/21 09:51:39;;;;;;;2.13;1.77;;;;;;;30.01;33.51;94607.28;4987967;28;20033;-78
2021/06/21 09:54:12;;;;;;;6.50;2.30;;;;;;;29.99;33.71;94600.75;4937562;29;20052;-80
2021/06/21 09:56:48;;;;;;;11.10;2.45;;;;;;;29.99;35.35;94598.84;4990418;28;20113;-80
2021/06/21 09:59:25;;;;;;;9.32;2.10;;;;;;;29.91;35.82;94601.75;4981928;28;20045;-80
2021/06/21 10:02:01;;;;;;;12.18;2.42;;;;;;;29.80;35.62;94602.38;5015575;28;20090;-80
2021/06/21 10:04:26;;;;;;;2.38;2.17;;;;;;;29.70;34.63;94608.34;4989324;28;20072;-80
2021/06/21 10:06:53;;;;;;;8.48;2.05;;;;;;;29.46;34.06;94606.81;4982027;28;20513;-80
2021/06/21 10:09:18;;;;;;;4.93;1.90;;;;;;;29.42;33.83;94597.88;5015571;28;20038;-80
2021/06/21 10:11:45;;;;;;;7.25;1.80;;;;;;;29.51;34.37;94597.69;4998170;28;20051;-80
2021/06/21 10:14:14;;;;;;;2.75;1.92;;;;;;;29.51;34.81;94590.41;5000941;28;20033;-80
2021/06/21 10:16:43;;;;;;;8.18;2.20;;;;;;;29.55;34.66;94587.78;5001972;28;20030;-80
2021/06/21 10:19:09;;;;;;;11.38;2.28;;;;;;;29.63;35.52;94589.47;5005511;28;20092;-80
2021/06/21 10:21:36;;;;;;;9.77;2.25;;;;;;;29.66;35.90;94596.78;5059389;22;20049;-79
2021/06/21 10:24:01;;;;;;;3.70;2.17;;;;;;;29.70;35.76;94594.16;5018018;28;20042;-80
2021/06/21 10:26:27;;;;;;;12.43;2.30;;;;;;;29.65;34.60;94595.25;4998451;28;20173;-80
2021/06/21 10:28:53;;;;;;;2.50;2.30;;;;;;;29.58;34.86;94598.56;5016423;28;20041;-80
2021/06/21 10:31:27;;;;;;;3.95;2.03;;;;;;;29.63;35.42;94602.88;5024562;22;20042;-80
2021/06/21 10:34:05;;;;;;;4.03;2.53;;;;;;;29.69;34.74;94595.28;5027445;28;20064;-80
2021/06/21 10:36:49;;;;;;;7.70;2.40;;;;;;;29.81;34.96;94598.56;4992443;28;20060;-80
2021/06/21 10:39:18;;;;;;;8.15;2.28;;;;;;;29.99;36.26;94595.38;5014962;28;20034;-80
2021/06/21 10:42:06;;;;;;;4.47;1.73;;;;;;;30.17;34.45;94585.72;4998010;28;20062;-80
2021/06/21 10:44:42;;;;;;;1.83;1.50;;;;;;;30.09;33.66;94587.50;5014029;28;20046;-80
2021/06/21 10:47:41;;;;;;;6.85;2.15;;;;;;;30.09;33.31;94586.75;5098582;23;20128;-79
2021/06/21 10:50:15;;;;;;;4.88;1.95;;;;;;;30.02;34.14;94583.94;5044468;28;20139;-79
2021/06/21 10:52:49;;;;;;;2.33;1.50;;;;;;;29.70;31.55;94581.53;5054152;28;20633;-79
2021/06/21 10:55:25;;;;;;;3.45;1.88;;;;;;;29.58;32.54;94585.16;5054694;28;20137;-79
2021/06/21 10:57:51;;;;;;;1.77;1.67;;;;;;;29.58;33.26;94584.41;5036290;28;20063;-79
2021/06/21 11:00:18;;;;;;;3.05;1.80;;;;;;;29.66;34.62;94574.59;5054948;28;20047;-79
2021/06/21 11:02:44;;;;;;;2.35;1.30;;;;;;;29.56;32.20;94570.59;5054561;28;20033;-79
2021/06/21 11:05:10;;;;;;;5.05;1.38;;;;;;;29.34;31.61;94574.00;5053682;28;20040;-79
2021/06/21 11:07:35;;;;;;;1.60;1.50;;;;;;;29.07;32.46;94568.56;5019340;28;20033;-79
2021/06/21 11:10:02;;;;;;;1.60;1.30;;;;;;;28.79;33.03;94563.41;5036714;28;20029;-79
2021/06/21 11:12:31;;;;;;;3.72;1.40;;;;;;;28.85;33.49;94562.03;5889378;23;20020;-79
2021/06/21 11:15:14;;;;;;;3.05;1.27;;;;;;;29.07;34.10;94555.19;5015358;28;20053;-79
2021/06/21 11:17:46;;;;;;;2.40;1.58;;;;;;;28.72;33.46;94559.84;5025961;28;20073;-79
2021/06/21 11:20:30;;;;;;;1.70;1.60;;;;;;;28.49;33.38;94557.09;5025196;28;20030;-79
2021/06/21 11:23:00;;;;;;;1.67;1.45;;;;;;;28.66;33.53;94546.75;5024510;28;20090;-78
2021/06/21 11:25:26;;;;;;;3.25;1.40;;;;;;;28.83;33.86;94558.94;5009179;28;20034;-79
2021/06/21 11:27:55;;;;;;;7.45;2.88;;;;;;;29.05;34.23;94552.09;5008202;28;20065;-79
2021/06/21 11:30:32;;;;;;;4.68;1.67;;;;;;;29.22;32.74;94553.53;5004133;28;20032;-78
2021/06/21 11:33:11;;;;;;;2.78;1.30;;;;;;;29.25;31.55;94553.59;5000360;28;20046;-77
2021/06/21 11:35:52;;;;;;;5.40;1.42;;;;;;;29.41;32.30;94550.00;5003045;28;20046;-80
2021/06/21 11:38:28;;;;;;;8.65;1.38;;;;;;;29.64;31.79;94545.47;5010468;28;20053;-80
2021/06/21 11:41:18;;;;;;;2.88;1.40;;;;;;;29.73;31.87;94548.66;5004055;28;20024;-80
2021/06/21 11:43:51;;;;;;;1.30;1.20;;;;;;;29.54;30.68;94543.38;5002218;28;20038;-80
2021/06/21 11:46:42;;;;;;;2.17;1.40;;;;;;;29.39;31.08;94549.59;4969128;28;20093;-80
2021/06/21 11:49:15;;;;;;;1.10;1.10;;;;;;;29.36;32.00;94536.94;4986193;28;20050;-80
2021/06/21 11:51:59;;;;;;;4.28;1.20;;;;;;;29.42;32.07;94548.88;4993156;28;20062;-80
2021/06/21 11:54:24;;;;;;;1.90;1.20;;;;;;;29.44;32.54;94542.03;4983941;28;20030;-78
2021/06/21 11:56:53;;;;;;;9.68;1.38;;;;;;;29.39;32.32;94550.38;4991929;28;20046;-80